createdAt,value
2018-02-05T00:00:41.331Z,102358.80
2018-02-05T00:03:08.847Z,102358.80
2018-02-05T00:05:36.378Z,102343.48
2018-02-05T00:08:03.914Z,102354.98
2018-02-05T00:10:31.475Z,102358.00
2018-02-05T00:12:58.996Z,102356.16
2018-02-05T00:15:26.525Z,102356.94
2018-02-05T00:17:54.046Z,102358.80
2018-02-05T00:20:21.562Z,102359.61
2018-02-05T00:22:49.160Z,102357.14
2018-02-05T00:25:16.691Z,102361.11
2018-02-05T00:27:44.289Z,102355.80
2018-02-05T00:30:11.818Z,102366.39
2018-02-05T00:32:39.368Z,102372.16
2018-02-05T00:35:06.898Z,102369.55
2018-02-05T00:37:34.417Z,102374.66
2018-02-05T00:40:01.976Z,102370.75
2018-02-05T00:42:29.496Z,102370.69
2018-02-05T00:44:57.092Z,102376.48
2018-02-05T00:47:24.602Z,102370.68
2018-02-05T00:49:52.138Z,102382.98
2018-02-05T00:52:19.653Z,102379.07
2018-02-05T00:54:47.181Z,102385.77
2018-02-05T00:57:14.724Z,102391.02
2018-02-05T00:59:42.261Z,102390.22
2018-02-05T01:02:09.776Z,102390.41
2018-02-05T01:04:37.310Z,102400.44
2018-02-05T01:07:04.812Z,102390.73
2018-02-05T01:09:32.328Z,102392.95
2018-02-05T01:11:59.845Z,102403.53
2018-02-05T01:14:27.374Z,102407.86
2018-02-05T01:16:54.892Z,102410.51
2018-02-05T01:19:22.524Z,102407.39
2018-02-05T01:21:50.037Z,102410.91
2018-02-05T01:24:17.554Z,102408.66
2018-02-05T01:26:45.079Z,102406.94
2018-02-05T01:29:12.613Z,102402.55
2018-02-05T01:31:40.124Z,102413.95
2018-02-05T01:34:07.649Z,102405.58
2018-02-05T01:36:35.181Z,102401.17
2018-02-05T01:39:02.712Z,102406.44
2018-02-05T01:41:30.248Z,102412.69
2018-02-05T01:43:57.768Z,102409.98
2018-02-05T01:46:25.288Z,102413.91
2018-02-05T01:48:52.807Z,102409.67
2018-02-05T01:51:20.381Z,102420.70
2018-02-05T01:53:47.921Z,102421.96
2018-02-05T01:56:15.431Z,102428.71
2018-02-05T01:58:42.956Z,102427.84
2018-02-05T02:01:10.477Z,102421.24
2018-02-05T02:03:37.993Z,102424.39
2018-02-05T02:06:05.510Z,102425.19
2018-02-05T02:08:33.092Z,102423.56
2018-02-05T02:11:00.684Z,102425.80
2018-02-05T02:13:28.237Z,102429.16
2018-02-05T02:15:55.751Z,102427.42
2018-02-05T02:18:23.303Z,102424.77
2018-02-05T02:20:50.929Z,102433.55
2018-02-05T02:23:18.448Z,102432.53
2018-02-05T02:25:46.037Z,102438.23
2018-02-05T02:28:13.569Z,102439.18
2018-02-05T02:30:41.134Z,102437.02
2018-02-05T02:33:08.693Z,102441.42
2018-02-05T02:35:36.227Z,102445.72
2018-02-05T02:38:03.780Z,102446.96
2018-02-05T02:40:31.296Z,102449.16
2018-02-05T02:42:58.808Z,102446.96
2018-02-05T02:45:26.328Z,102440.94
2018-02-05T02:47:53.858Z,102451.41
2018-02-05T02:50:21.374Z,102456.08
2018-02-05T02:52:48.906Z,102457.23
2018-02-05T02:55:16.433Z,102458.16
2018-02-05T02:57:44.017Z,102462.52
2018-02-05T03:00:11.555Z,102463.30
2018-02-05T03:02:39.105Z,102464.67
2018-02-05T03:05:06.632Z,102466.38
2018-02-05T03:07:34.161Z,102467.86
2018-02-05T03:10:01.721Z,102471.36
2018-02-05T03:12:29.237Z,102474.25
2018-02-05T03:14:56.753Z,102477.45
2018-02-05T03:17:24.272Z,102478.55
2018-02-05T03:19:51.786Z,102486.81
2018-02-05T03:22:19.306Z,102483.28
2018-02-05T03:24:46.836Z,102486.38
2018-02-05T03:27:14.352Z,102479.47
2018-02-05T03:29:41.867Z,102482.62
2018-02-05T03:32:09.450Z,102486.97
2018-02-05T03:34:36.969Z,102489.36
2018-02-05T03:37:04.493Z,102488.17
2018-02-05T03:39:32.130Z,102492.23
2018-02-05T03:41:59.641Z,102493.42
2018-02-05T03:44:27.158Z,102495.20
2018-02-05T03:46:54.707Z,102500.34
2018-02-05T03:49:22.224Z,102497.51
2018-02-05T03:51:49.741Z,102501.29
2018-02-05T03:54:17.259Z,102507.78
2018-02-05T03:56:44.769Z,102507.61
2018-02-05T03:59:12.303Z,102512.27
2018-02-05T04:01:39.832Z,102510.72
2018-02-05T04:04:07.392Z,102509.97
2018-02-05T04:06:40.576Z,102513.48
2018-02-05T04:09:08.105Z,102516.35
2018-02-05T04:11:35.626Z,102513.50
2018-02-05T04:14:03.150Z,102514.79
2018-02-05T04:16:30.685Z,102516.08
2018-02-05T04:18:58.216Z,102518.08
2018-02-05T04:21:25.735Z,102524.15
2018-02-05T04:23:53.257Z,102518.83
2018-02-05T04:26:20.768Z,102524.04
2018-02-05T04:28:48.285Z,102521.72
2018-02-05T04:31:15.800Z,102530.83
2018-02-05T04:33:43.313Z,102529.48
2018-02-05T04:36:10.830Z,102536.33
2018-02-05T04:38:38.347Z,102531.90
2018-02-05T04:41:05.870Z,102536.98
2018-02-05T04:43:33.401Z,102542.14
2018-02-05T04:46:00.952Z,102548.75
2018-02-05T04:48:28.466Z,102539.38
2018-02-05T04:50:56.036Z,102538.77
2018-02-05T04:53:23.603Z,102551.08
2018-02-05T04:55:51.165Z,102551.42
2018-02-05T04:58:18.681Z,102551.85
2018-02-05T05:00:46.200Z,102559.66
2018-02-05T05:03:13.764Z,102560.45
2018-02-05T05:05:41.284Z,102557.30
2018-02-05T05:08:08.792Z,102557.23
2018-02-05T05:10:36.306Z,102557.19
2018-02-05T05:13:03.821Z,102557.34
2018-02-05T05:15:31.332Z,102560.71
2018-02-05T05:17:58.868Z,102565.63
2018-02-05T05:20:26.385Z,102551.25
2018-02-05T05:22:53.900Z,102552.12
2018-02-05T05:25:21.417Z,102561.65
2018-02-05T05:27:48.936Z,102566.10
2018-02-05T05:30:16.445Z,102567.48
2018-02-05T05:32:43.973Z,102561.39
2018-02-05T05:35:11.488Z,102566.65
2018-02-05T05:37:39.011Z,102568.19
2018-02-05T05:40:06.534Z,102572.50
2018-02-05T05:42:34.065Z,102570.88
2018-02-05T05:45:01.589Z,102574.72
2018-02-05T05:47:29.116Z,102582.69
2018-02-05T05:49:56.656Z,102584.11
2018-02-05T05:52:24.168Z,102585.64
2018-02-05T05:54:51.682Z,102582.61
2018-02-05T05:57:19.211Z,102585.69
2018-02-05T05:59:46.728Z,102587.84
2018-02-05T06:02:14.237Z,102588.45
2018-02-05T06:04:41.749Z,102580.76
2018-02-05T06:07:09.267Z,102585.02
2018-02-05T06:09:36.784Z,102592.08
2018-02-05T06:12:04.313Z,102594.58
2018-02-05T06:14:31.831Z,102592.83
2018-02-05T06:16:59.344Z,102597.31
2018-02-05T06:19:26.861Z,102596.77
2018-02-05T06:21:54.390Z,102603.11
2018-02-05T06:24:21.906Z,102600.06
2018-02-05T06:26:49.424Z,102606.41
2018-02-05T06:29:16.949Z,102606.92
2018-02-05T06:31:44.468Z,102616.81
2018-02-05T06:34:11.997Z,102608.52
2018-02-05T06:36:39.521Z,102610.90
2018-02-05T06:39:07.049Z,102619.22
2018-02-05T06:41:34.572Z,102623.97
2018-02-05T06:44:02.110Z,102625.38
2018-02-05T06:46:29.681Z,102619.66
2018-02-05T06:48:57.199Z,102628.48
2018-02-05T06:51:36.520Z,102636.02
2018-02-05T06:54:15.960Z,102632.58
2018-02-05T06:56:43.485Z,102636.19
2018-02-05T06:59:11.009Z,102640.45
2018-02-05T07:01:38.553Z,102635.02
2018-02-05T07:04:06.107Z,102639.48
2018-02-05T07:06:33.642Z,102639.18
2018-02-05T07:09:01.165Z,102639.73
2018-02-05T07:11:28.684Z,102636.03
2018-02-05T07:13:57.045Z,102631.73
2018-02-05T07:16:24.557Z,102632.42
2018-02-05T07:18:52.079Z,102628.55
2018-02-05T07:21:19.610Z,102631.48
2018-02-05T07:23:47.160Z,102645.22
2018-02-05T07:26:14.677Z,102655.45
2018-02-05T07:28:42.192Z,102655.62
2018-02-05T07:31:09.721Z,102651.37
2018-02-05T07:33:37.236Z,102649.36
2018-02-05T07:36:04.766Z,102646.81
2018-02-05T07:38:32.290Z,102647.89
2018-02-05T07:40:59.809Z,102647.47
2018-02-05T07:43:27.336Z,102653.31
2018-02-05T07:45:54.857Z,102648.78
2018-02-05T07:48:22.364Z,102651.31
2018-02-05T07:50:49.875Z,102650.87
2018-02-05T07:53:17.380Z,102653.39
2018-02-05T07:55:44.908Z,102647.70
2018-02-05T07:58:12.438Z,102651.95
2018-02-05T08:00:39.987Z,102653.06
2018-02-05T08:03:07.511Z,102658.83
2018-02-05T08:05:35.029Z,102657.27
2018-02-05T08:08:02.616Z,102663.95
2018-02-05T08:10:30.118Z,102665.52
2018-02-05T08:12:57.647Z,102663.75
2018-02-05T08:15:25.160Z,102664.78
2018-02-05T08:17:52.664Z,102670.80
2018-02-05T08:20:20.167Z,102662.53
2018-02-05T08:22:47.681Z,102664.77
2018-02-05T08:25:15.198Z,102666.80
2018-02-05T08:27:42.709Z,102670.00
2018-02-05T08:30:10.234Z,102671.47
2018-02-05T08:32:37.747Z,102666.75
2018-02-05T08:35:05.272Z,102671.19
2018-02-05T08:37:32.781Z,102670.11
2018-02-05T08:40:00.293Z,102671.36
2018-02-05T08:42:27.802Z,102664.31
2018-02-05T08:44:55.366Z,102665.30
2018-02-05T08:47:22.868Z,102663.14
2018-02-05T08:49:50.379Z,102657.59
2018-02-05T08:52:17.893Z,102660.13
2018-02-05T08:54:45.409Z,102657.59
2018-02-05T08:57:12.926Z,102660.42
2018-02-05T08:59:40.444Z,102665.09
2018-02-05T09:02:07.970Z,102663.84
2018-02-05T09:04:35.492Z,102661.72
2018-02-05T09:07:03.016Z,102657.37
2018-02-05T09:09:30.544Z,102655.77
2018-02-05T09:11:58.052Z,102664.10
2018-02-05T09:14:25.562Z,102661.81
2018-02-05T09:16:53.085Z,102670.94
2018-02-05T09:19:20.606Z,102667.28
2018-02-05T09:21:48.108Z,102673.39
2018-02-05T09:24:15.635Z,102663.00
2018-02-05T09:26:43.148Z,102672.27
2018-02-05T09:29:10.677Z,102674.55
2018-02-05T09:31:48.324Z,102675.08
2018-02-05T09:34:15.874Z,102666.23
2018-02-05T09:36:43.493Z,102672.44
2018-02-05T09:39:11.109Z,102670.42
2018-02-05T09:41:38.635Z,102669.61
2018-02-05T09:44:06.150Z,102663.61
2018-02-05T09:46:34.883Z,102661.80
2018-02-05T09:49:02.465Z,102661.16
2018-02-05T09:51:29.983Z,102652.41
2018-02-05T09:53:57.488Z,102653.77
2018-02-05T09:56:25.006Z,102646.10
2018-02-05T09:58:52.516Z,102642.11
2018-02-05T10:01:20.032Z,102649.39
2018-02-05T10:03:47.552Z,102646.77
2018-02-05T10:06:15.073Z,102642.73
2018-02-05T10:08:42.589Z,102651.22
2018-02-05T10:11:10.093Z,102644.07
2018-02-05T10:13:37.629Z,102634.83
2018-02-05T10:16:05.150Z,102640.40
2018-02-05T10:18:32.679Z,102643.19
2018-02-05T10:21:00.192Z,102639.19
2018-02-05T10:23:27.706Z,102637.82
2018-02-05T10:25:55.218Z,102638.28
2018-02-05T10:28:22.725Z,102638.66
2018-02-05T10:30:50.244Z,102638.02
2018-02-05T10:33:17.780Z,102635.70
2018-02-05T10:35:45.302Z,102647.31
2018-02-05T10:38:12.849Z,102638.02
2018-02-05T10:40:40.361Z,102639.30
2018-02-05T10:43:07.964Z,102639.98
2018-02-05T10:45:36.649Z,102646.55
2018-02-05T10:48:04.191Z,102639.01
2018-02-05T10:50:31.704Z,102638.30
2018-02-05T10:52:59.217Z,102646.06
2018-02-05T10:55:26.739Z,102643.59
2018-02-05T10:57:54.250Z,102645.62
2018-02-05T11:00:21.772Z,102651.55
2018-02-05T11:02:49.279Z,102642.36
2018-02-05T11:05:16.793Z,102648.00
2018-02-05T11:07:44.329Z,102642.47
2018-02-05T11:10:11.995Z,102648.30
2018-02-05T11:12:39.519Z,102646.03
2018-02-05T11:15:07.034Z,102649.73
2018-02-05T11:17:34.551Z,102651.03
2018-02-05T11:20:02.065Z,102644.82
2018-02-05T11:22:29.591Z,102640.14
2018-02-05T11:24:57.101Z,102641.70
2018-02-05T11:27:24.621Z,102641.86
2018-02-05T11:29:52.131Z,102639.52
2018-02-05T11:32:19.642Z,102626.09
2018-02-05T11:34:47.181Z,102627.50
2018-02-05T11:37:14.701Z,102623.81
2018-02-05T11:39:42.217Z,102624.83
2018-02-05T11:42:09.721Z,102619.83
2018-02-05T11:44:37.238Z,102619.60
2018-02-05T11:47:04.746Z,102617.83
2018-02-05T11:49:32.281Z,102620.94
2018-02-05T11:51:59.805Z,102612.31
2018-02-05T11:54:27.313Z,102609.48
2018-02-05T11:56:54.829Z,102609.05
2018-02-05T11:59:22.359Z,102615.47
2018-02-05T12:01:49.871Z,102611.52
2018-02-05T12:04:17.391Z,102600.34
2018-02-05T12:06:44.896Z,102600.69
2018-02-05T12:09:12.407Z,102600.16
2018-02-05T12:11:39.912Z,102598.46
2018-02-05T12:14:07.427Z,102594.78
2018-02-05T12:16:34.933Z,102599.09
2018-02-05T12:19:02.454Z,102597.72
2018-02-05T12:21:30.065Z,102588.18
2018-02-05T12:23:57.648Z,102584.56
2018-02-05T12:26:25.201Z,102587.89
2018-02-05T12:28:52.712Z,102584.03
2018-02-05T12:31:20.332Z,102582.78
2018-02-05T12:33:47.844Z,102578.48
2018-02-05T12:36:15.375Z,102568.27
2018-02-05T12:38:43.732Z,102565.98
2018-02-05T12:41:11.242Z,102568.48
2018-02-05T12:43:38.756Z,102562.48
2018-02-05T12:46:06.261Z,102565.80
2018-02-05T12:48:33.773Z,102559.27
2018-02-05T12:51:01.304Z,102566.38
2018-02-05T12:53:28.805Z,102554.38
2018-02-05T12:55:56.304Z,102558.47
2018-02-05T12:58:23.823Z,102555.16
2018-02-05T13:00:55.268Z,102558.12
2018-02-05T13:03:28.524Z,102550.36
2018-02-05T13:06:01.684Z,102547.13
2018-02-05T13:08:29.179Z,102543.16
2018-02-05T13:10:56.691Z,102539.80
2018-02-05T13:13:24.196Z,102550.98
2018-02-05T13:15:51.768Z,102539.81
2018-02-05T13:18:19.279Z,102534.88
2018-02-05T13:20:46.787Z,102536.02
2018-02-05T13:23:14.307Z,102534.25
2018-02-05T13:25:41.892Z,102530.05
2018-02-05T13:28:09.461Z,102540.02
2018-02-05T13:30:36.967Z,102530.19
2018-02-05T13:33:04.572Z,102526.61
2018-02-05T13:35:32.140Z,102519.53
2018-02-05T13:37:59.641Z,102514.32
2018-02-05T13:40:27.271Z,102521.21
2018-02-05T13:42:54.780Z,102515.80
2018-02-05T13:45:22.324Z,102514.53
2018-02-05T13:47:49.832Z,102504.70
2018-02-05T13:50:17.362Z,102507.09
2018-02-05T13:52:44.865Z,102512.13
2018-02-05T13:55:12.363Z,102509.83
2018-02-05T13:57:39.870Z,102510.01
2018-02-05T14:00:07.376Z,102504.55
2018-02-05T14:02:34.887Z,102503.23
2018-02-05T14:05:02.420Z,102496.45
2018-02-05T14:07:29.929Z,102497.23
2018-02-05T14:09:57.427Z,102488.84
2018-02-05T14:12:24.934Z,102492.34
2018-02-05T14:14:52.443Z,102493.31
2018-02-05T14:17:19.953Z,102488.52
2018-02-05T14:19:47.449Z,102489.05
2018-02-05T14:22:14.952Z,102479.22
2018-02-05T14:24:42.457Z,102480.89
2018-02-05T14:27:09.960Z,102482.59
2018-02-05T14:29:37.555Z,102482.56
2018-02-05T14:32:05.068Z,102479.30
2018-02-05T14:34:32.578Z,102491.55
2018-02-05T14:37:00.125Z,102479.48
2018-02-05T14:39:27.633Z,102485.05
2018-02-05T14:41:55.146Z,102478.45
2018-02-05T14:44:22.695Z,102475.52
2018-02-05T14:46:50.221Z,102473.55
2018-02-05T14:49:17.832Z,102472.95
2018-02-05T14:51:45.379Z,102482.47
2018-02-05T14:54:12.932Z,102480.36
2018-02-05T14:56:40.445Z,102482.01
2018-02-05T14:59:08.017Z,102472.55
2018-02-05T15:01:35.527Z,102478.76
2018-02-05T15:04:03.053Z,102473.42
2018-02-05T15:06:30.567Z,102480.28
2018-02-05T15:08:58.081Z,102473.67
2018-02-05T15:11:25.583Z,102467.40
2018-02-05T15:13:53.085Z,102468.86
2018-02-05T15:16:20.596Z,102470.55
2018-02-05T15:18:48.121Z,102464.83
2018-02-05T15:21:15.679Z,102462.06
2018-02-05T15:23:43.165Z,102460.23
2018-02-05T15:26:10.677Z,102454.64
2018-02-05T15:28:38.202Z,102455.88
2018-02-05T15:31:05.733Z,102458.83
2018-02-05T15:33:33.245Z,102451.86
2018-02-05T15:36:00.785Z,102441.89
2018-02-05T15:38:28.315Z,102440.46
2018-02-05T15:40:55.844Z,102442.63
2018-02-05T15:43:23.736Z,102444.11
2018-02-05T15:45:51.248Z,102438.92
2018-02-05T15:48:18.764Z,102441.60
2018-02-05T15:50:46.268Z,102443.54
2018-02-05T15:53:13.780Z,102449.19
2018-02-05T15:55:41.289Z,102450.48
2018-02-05T15:58:08.813Z,102444.28
2018-02-05T16:00:36.318Z,102444.20
2018-02-05T17:25:00.948Z,102443.15
2018-02-05T17:27:28.518Z,102434.70
2018-02-05T17:29:56.067Z,102435.61
2018-02-05T17:32:23.592Z,102437.80
2018-02-05T17:34:51.102Z,102434.25
2018-02-05T17:37:18.620Z,102435.16
2018-02-05T17:39:46.131Z,102436.19
2018-02-05T17:42:13.644Z,102437.80
2018-02-05T17:44:41.219Z,102441.81
2018-02-05T17:47:08.709Z,102433.36
2018-02-05T17:49:36.231Z,102438.19
2018-02-05T17:52:03.756Z,102439.06
2018-02-05T17:54:31.303Z,102437.20
2018-02-05T17:56:58.813Z,102435.81
2018-02-05T17:59:26.343Z,102444.44
2018-02-05T18:01:53.860Z,102444.09
2018-02-05T18:04:21.379Z,102436.08
2018-02-05T18:06:48.901Z,102443.13
2018-02-05T18:09:16.418Z,102439.43
2018-02-05T18:11:43.937Z,102444.28
2018-02-05T18:14:11.450Z,102439.34
2018-02-05T18:16:38.961Z,102442.33
2018-02-05T18:19:06.472Z,102440.64
2018-02-05T18:21:33.990Z,102436.13
2018-02-05T18:24:01.508Z,102440.98
2018-02-05T18:26:29.021Z,102444.00
2018-02-05T18:28:56.533Z,102438.65
2018-02-05T18:31:24.052Z,102444.25
2018-02-05T18:33:51.572Z,102441.73
2018-02-05T18:36:19.101Z,102438.17
2018-02-05T18:38:46.613Z,102440.18
2018-02-05T18:41:14.142Z,102438.84
2018-02-05T18:43:41.651Z,102426.09
2018-02-05T18:46:09.170Z,102425.55
2018-02-05T18:48:36.681Z,102424.22
2018-02-05T18:51:04.271Z,102425.55
2018-02-05T18:53:31.938Z,102428.14
2018-02-05T18:55:59.597Z,102418.17
2018-02-05T18:58:27.236Z,102423.87
2018-02-05T19:00:54.804Z,102413.27
2018-02-05T19:03:22.393Z,102410.95
2018-02-05T19:05:50.740Z,102420.56
2018-02-05T19:08:18.329Z,102420.23
2018-02-05T19:10:45.883Z,102421.92
2018-02-05T19:13:13.417Z,102415.31
2018-02-05T19:15:40.929Z,102418.41
2018-02-05T19:18:08.471Z,102418.98
2018-02-05T19:20:36.098Z,102425.28
2018-02-05T19:23:03.745Z,102417.80
2018-02-05T19:25:31.483Z,102412.98
2018-02-05T19:27:59.185Z,102416.02
2018-02-05T19:30:26.773Z,102415.50
2018-02-05T19:32:55.321Z,102406.30
2018-02-05T19:35:22.876Z,102402.91
2018-02-05T19:37:50.400Z,102398.81
2018-02-05T19:40:17.937Z,102393.40
2018-02-05T19:42:45.527Z,102395.59
2018-02-05T19:45:13.058Z,102392.45
2018-02-05T19:47:40.584Z,102394.31
2018-02-05T19:50:08.118Z,102383.66
2018-02-05T19:52:35.653Z,102380.17
2018-02-05T19:55:03.184Z,102386.25
2018-02-05T19:57:30.723Z,102381.86
2018-02-05T19:59:58.248Z,102380.44
2018-02-05T20:02:25.756Z,102381.16
2018-02-05T20:04:53.276Z,102382.52
2018-02-05T20:07:20.809Z,102382.83
2018-02-05T20:09:48.363Z,102376.78
2018-02-05T20:12:15.908Z,102385.59
2018-02-05T20:14:43.423Z,102371.12
2018-02-05T20:17:10.973Z,102377.27
2018-02-05T20:19:38.507Z,102377.67
2018-02-05T20:22:06.043Z,102377.25
2018-02-05T20:24:33.726Z,102373.63
2018-02-05T20:27:01.374Z,102373.16
2018-02-05T20:29:28.952Z,102370.88
2018-02-05T20:31:56.508Z,102369.62
2018-02-05T20:34:24.072Z,102374.40
2018-02-05T20:36:51.604Z,102370.44
2018-02-05T20:39:19.119Z,102372.14
2018-02-05T20:41:46.713Z,102369.49
2018-02-05T20:44:14.284Z,102367.30
2018-02-05T20:46:41.839Z,102364.03
2018-02-05T20:49:09.370Z,102355.78
2018-02-05T20:51:36.896Z,102357.08
2018-02-05T20:54:04.416Z,102356.44
2018-02-05T20:56:31.953Z,102353.79
2018-02-05T20:58:59.476Z,102349.80
2018-02-05T21:01:27.009Z,102344.94
2018-02-05T21:03:54.560Z,102344.99
2018-02-05T21:06:22.112Z,102344.58
2018-02-05T21:08:49.655Z,102351.13
2018-02-05T21:11:17.191Z,102352.01
2018-02-05T21:13:44.762Z,102349.31
2018-02-05T21:16:12.272Z,102342.29
2018-02-05T21:18:39.793Z,102347.95
2018-02-05T21:21:07.309Z,102344.44
2018-02-05T21:23:34.840Z,102342.22
2018-02-05T21:26:02.396Z,102342.55
2018-02-05T21:28:29.970Z,102341.25
2018-02-05T21:30:57.547Z,102338.79
2018-02-05T21:33:25.115Z,102335.75
2018-02-05T21:35:52.656Z,102336.18
2018-02-05T21:38:20.175Z,102332.52
2018-02-05T21:40:47.684Z,102333.29
2018-02-05T21:43:15.225Z,102330.22
2018-02-05T21:45:42.749Z,102324.95
2018-02-05T21:48:10.260Z,102324.59
2018-02-05T21:50:37.803Z,102319.72
2018-02-05T21:53:05.340Z,102313.14
2018-02-05T21:55:32.878Z,102316.94
2018-02-05T21:58:01.629Z,102310.81
2018-02-05T22:00:29.221Z,102308.19
2018-02-05T22:02:56.750Z,102311.55
2018-02-05T22:05:24.282Z,102309.30
2018-02-05T22:07:51.801Z,102304.92
2018-02-05T22:10:19.351Z,102300.57
2018-02-05T22:12:46.901Z,102299.84
2018-02-05T22:15:14.441Z,102289.97
2018-02-05T22:17:41.995Z,102291.58
2018-02-05T22:20:09.562Z,102286.38
2018-02-05T22:22:37.104Z,102288.50
2018-02-05T22:25:04.626Z,102281.51
2018-02-05T22:27:32.152Z,102283.17
2018-02-05T22:30:00.638Z,102274.88
2018-02-05T22:32:28.155Z,102271.81
2018-02-05T22:34:55.693Z,102267.86
2018-02-05T22:37:23.234Z,102266.86
2018-02-05T22:39:50.775Z,102271.16
2018-02-05T22:42:18.316Z,102267.63
2018-02-05T22:44:46.812Z,102262.83
2018-02-05T22:47:14.445Z,102258.81
2018-02-05T22:49:42.128Z,102246.14
2018-02-05T22:52:09.684Z,102250.87
2018-02-05T22:54:37.360Z,102245.23
2018-02-05T22:57:05.093Z,102237.34
2018-02-05T22:59:32.901Z,102230.52
2018-02-05T23:02:00.604Z,102236.92
2018-02-05T23:04:28.165Z,102226.92
2018-02-05T23:06:55.790Z,102221.17
2018-02-05T23:09:23.351Z,102223.91
2018-02-05T23:11:50.870Z,102222.52
2018-02-05T23:14:18.412Z,102221.23
2018-02-05T23:16:45.953Z,102213.08
2018-02-05T23:19:13.540Z,102207.27
2018-02-05T23:21:41.214Z,102209.06
2018-02-05T23:24:08.935Z,102201.78
2018-02-05T23:26:36.509Z,102198.30
2018-02-05T23:29:04.172Z,102196.88
2018-02-05T23:31:31.840Z,102195.53
2018-02-05T23:33:59.504Z,102193.73
2018-02-05T23:36:27.097Z,102184.48
2018-02-05T23:38:54.638Z,102187.64
2018-02-05T23:41:22.164Z,102191.59
2018-02-05T23:43:49.734Z,102187.22
2018-02-05T23:46:17.241Z,102186.22
2018-02-05T23:48:44.762Z,102190.48
2018-02-05T23:51:12.289Z,102185.58
2018-02-05T23:53:39.922Z,102189.02
2018-02-05T23:56:07.468Z,102178.44
2018-02-05T23:58:35.041Z,102180.53
